createdAt,value
2019-03-18T00:01:16.461Z,6.77
2019-03-18T00:03:47.161Z,5.20
2019-03-18T00:06:25.636Z,5.97
2019-03-18T00:08:56.247Z,4.17
2019-03-18T00:11:27.091Z,5.37
2019-03-18T00:14:35.360Z,3.20
2019-03-18T00:17:13.861Z,4.13
2019-03-18T00:19:50.457Z,3.57
2019-03-18T00:22:21.109Z,4.23
2019-03-18T00:24:51.818Z,2.60
2019-03-18T00:27:29.916Z,3.40
2019-03-18T00:30:00.498Z,6.13
2019-03-18T00:32:31.189Z,3.87
2019-03-18T00:35:11.866Z,5.03
2019-03-18T00:37:43.548Z,4.80
2019-03-18T00:40:14.276Z,4.10
2019-03-18T00:42:45.054Z,3.90
2019-03-18T00:45:15.998Z,5.73
2019-03-18T00:47:46.707Z,4.10
2019-03-18T00:50:17.473Z,4.37
2019-03-18T00:52:48.338Z,2.40
2019-03-18T00:55:18.971Z,3.77
2019-03-18T00:57:49.688Z,3.63
2019-03-18T01:00:27.195Z,3.93
2019-03-18T01:03:07.189Z,4.73
2019-03-18T01:05:39.821Z,4.70
2019-03-18T01:08:14.946Z,5.23
2019-03-18T01:10:45.615Z,5.10
2019-03-18T01:13:16.279Z,4.17
2019-03-18T01:15:46.862Z,4.77
2019-03-18T01:18:27.283Z,5.13
2019-03-18T01:21:01.948Z,4.63
2019-03-18T01:23:32.638Z,4.10
2019-03-18T01:26:03.300Z,6.67
2019-03-18T01:28:33.974Z,6.13
2019-03-18T01:31:04.635Z,6.17
2019-03-18T01:33:35.327Z,3.90
2019-03-18T01:36:06.073Z,4.87
2019-03-18T01:38:41.109Z,3.60
2019-03-18T01:41:11.754Z,3.80
2019-03-18T01:43:42.339Z,4.60
2019-03-18T01:46:13.019Z,6.83
2019-03-18T01:48:43.589Z,5.77
2019-03-18T01:51:22.534Z,7.23
2019-03-18T01:53:54.206Z,4.70
2019-03-18T01:56:24.795Z,4.30
2019-03-18T01:58:55.485Z,5.13
2019-03-18T02:01:26.163Z,5.93
2019-03-18T02:03:56.873Z,5.13
2019-03-18T02:06:52.477Z,6.27
2019-03-18T02:09:23.018Z,6.73
2019-03-18T02:11:53.696Z,4.57
2019-03-18T02:14:34.416Z,4.90
2019-03-18T02:17:05.133Z,5.97
2019-03-18T02:19:41.315Z,4.13
2019-03-18T02:22:22.982Z,4.57
2019-03-18T02:24:53.596Z,6.50
2019-03-18T02:27:41.904Z,4.17
2019-03-18T02:30:33.505Z,5.10
2019-03-18T02:33:04.222Z,7.77
2019-03-18T02:35:34.787Z,4.43
2019-03-18T02:38:05.388Z,6.27
2019-03-18T02:40:54.643Z,5.57
2019-03-18T02:43:25.378Z,4.20
2019-03-18T02:46:09.344Z,4.73
2019-03-18T02:48:28.387Z,6.03
2019-03-18T02:50:58.982Z,5.03
2019-03-18T02:53:29.668Z,5.17
2019-03-18T02:56:00.229Z,6.23
2019-03-18T02:58:42.799Z,9.13
2019-03-18T03:01:29.683Z,5.33
2019-03-18T03:04:01.384Z,9.30
2019-03-18T03:06:31.976Z,12.77
2019-03-18T03:09:02.634Z,13.40
2019-03-18T03:11:34.506Z,8.73
2019-03-18T03:14:25.541Z,4.83
2019-03-18T03:17:08.497Z,7.33
2019-03-18T03:19:39.270Z,5.13
2019-03-18T03:22:16.205Z,9.23
2019-03-18T03:24:46.800Z,8.97
2019-03-18T03:27:43.477Z,6.80
2019-03-18T03:30:14.376Z,6.97
2019-03-18T03:32:52.169Z,10.53
2019-03-18T03:35:23.907Z,8.23
2019-03-18T03:37:54.637Z,8.07
2019-03-18T03:40:25.321Z,8.07
2019-03-18T03:42:56.068Z,8.07
2019-03-18T03:45:33.683Z,7.67
2019-03-18T03:48:04.469Z,10.53
2019-03-18T03:50:34.988Z,7.20
2019-03-18T03:53:05.558Z,8.63
2019-03-18T03:55:36.229Z,9.47
2019-03-18T03:58:06.784Z,8.33
2019-03-18T04:00:37.467Z,7.53
2019-03-18T04:03:08.166Z,7.27
2019-03-18T04:05:38.667Z,8.80
2019-03-18T04:08:09.550Z,8.97
2019-03-18T04:10:47.504Z,8.70
2019-03-18T04:13:22.957Z,7.77
2019-03-18T04:15:53.652Z,7.30
2019-03-18T04:18:24.363Z,7.80
2019-03-18T04:21:07.031Z,8.43
2019-03-18T04:23:37.634Z,8.70
2019-03-18T04:26:08.293Z,8.07
2019-03-18T04:28:38.930Z,12.70
2019-03-18T04:31:09.618Z,7.90
2019-03-18T04:33:46.342Z,9.10
2019-03-18T04:36:17.064Z,8.63
2019-03-18T04:39:14.220Z,8.80
2019-03-18T04:42:17.962Z,9.40
2019-03-18T04:44:50.586Z,10.13
2019-03-18T04:47:22.275Z,9.87
2019-03-18T04:49:52.808Z,7.90
2019-03-18T04:52:41.860Z,10.43
2019-03-18T04:55:12.468Z,9.23
2019-03-18T04:57:43.151Z,11.03
2019-03-18T05:00:14.901Z,10.80
2019-03-18T05:02:49.241Z,11.80
2019-03-18T05:05:23.342Z,11.97
2019-03-18T05:07:54.397Z,9.30
2019-03-18T05:10:28.655Z,9.77
2019-03-18T05:12:59.419Z,11.57
2019-03-18T05:15:30.097Z,12.20
2019-03-18T05:18:00.740Z,11.50
2019-03-18T05:20:31.344Z,13.60
2019-03-18T05:23:01.957Z,12.50
2019-03-18T05:25:32.730Z,14.47
2019-03-18T05:28:03.474Z,14.13
2019-03-18T05:30:37.815Z,19.30
2019-03-18T05:33:08.512Z,22.80
2019-03-18T05:35:39.295Z,23.60
2019-03-18T05:38:11.011Z,23.63
2019-03-18T05:41:00.238Z,21.30
2019-03-18T05:43:36.353Z,17.13
2019-03-18T05:46:10.235Z,16.37
2019-03-18T05:48:40.929Z,15.40
2019-03-18T05:51:12.634Z,15.50
2019-03-18T05:53:43.291Z,13.57
2019-03-18T05:56:13.924Z,17.53
2019-03-18T05:58:44.624Z,12.93
2019-03-18T06:01:24.715Z,18.30
2019-03-18T06:04:03.388Z,21.20
2019-03-18T06:06:39.188Z,16.60
2019-03-18T06:09:09.879Z,15.50
2019-03-18T06:11:43.750Z,13.17
2019-03-18T06:14:35.569Z,13.73
2019-03-18T06:17:06.167Z,14.27
2019-03-18T06:19:36.792Z,19.60
2019-03-18T06:22:13.395Z,20.47
2019-03-18T06:24:44.134Z,15.17
2019-03-18T06:27:14.775Z,15.60
2019-03-18T06:29:48.423Z,13.80
2019-03-18T06:32:19.120Z,11.43
2019-03-18T06:34:50.715Z,10.80
2019-03-18T06:37:21.469Z,15.97
2019-03-18T06:39:57.248Z,11.97
2019-03-18T06:42:27.835Z,14.13
2019-03-18T06:45:10.277Z,17.50
2019-03-18T06:47:40.910Z,12.07
2019-03-18T06:50:12.642Z,13.07
2019-03-18T06:52:43.312Z,11.77
2019-03-18T06:55:13.943Z,12.43
2019-03-18T06:57:44.642Z,13.77
2019-03-18T07:00:15.340Z,11.47
2019-03-18T07:02:46.056Z,11.63
2019-03-18T07:05:16.768Z,11.17
2019-03-18T07:07:58.935Z,15.37
2019-03-18T07:10:29.669Z,13.70
2019-03-18T07:13:00.340Z,11.67
2019-03-18T07:15:30.861Z,14.47
2019-03-18T07:18:01.477Z,15.37
2019-03-18T07:20:32.145Z,14.40
2019-03-18T07:23:04.794Z,15.70
2019-03-18T07:25:35.423Z,14.67
2019-03-18T07:28:06.088Z,12.73
2019-03-18T07:30:36.757Z,12.90
2019-03-18T07:33:07.441Z,12.57
2019-03-18T07:35:38.117Z,13.03
2019-03-18T07:38:08.824Z,14.00
2019-03-18T07:40:39.559Z,16.27
2019-03-18T07:43:14.147Z,14.97
2019-03-18T07:45:44.755Z,14.23
2019-03-18T07:48:15.364Z,13.80
2019-03-18T07:50:46.015Z,11.83
2019-03-18T07:53:18.262Z,11.50
2019-03-18T07:56:15.595Z,11.33
2019-03-18T07:58:46.204Z,12.23
2019-03-18T08:01:16.810Z,14.03
2019-03-18T08:03:47.492Z,14.20
2019-03-18T08:06:36.529Z,12.10
2019-03-18T08:09:09.011Z,14.80
2019-03-18T08:11:39.711Z,11.50
2019-03-18T08:14:10.293Z,13.53
2019-03-18T08:16:41.146Z,18.67
2019-03-18T08:19:16.632Z,13.13
2019-03-18T08:21:55.084Z,17.47
2019-03-18T08:24:25.681Z,14.87
2019-03-18T08:26:56.391Z,14.10
2019-03-18T08:29:33.440Z,13.60
2019-03-18T08:32:04.120Z,12.97
2019-03-18T08:34:34.745Z,14.60
2019-03-18T08:37:09.302Z,11.83
2019-03-18T08:39:39.987Z,9.63
2019-03-18T08:42:11.717Z,11.20
2019-03-18T08:44:50.298Z,12.27
2019-03-18T08:47:26.794Z,9.23
2019-03-18T08:50:07.796Z,11.93
2019-03-18T08:52:43.845Z,13.80
2019-03-18T08:55:23.849Z,15.80
2019-03-18T08:57:54.537Z,17.30
2019-03-18T09:00:43.860Z,16.57
2019-03-18T09:03:44.737Z,14.80
2019-03-18T09:06:16.475Z,18.03
2019-03-18T09:08:47.085Z,15.17
2019-03-18T09:11:17.680Z,15.90
2019-03-18T09:13:48.352Z,17.47
2019-03-18T09:16:18.933Z,21.57
2019-03-18T09:18:49.589Z,19.03
2019-03-18T09:21:20.241Z,14.67
2019-03-18T09:24:01.123Z,17.20
2019-03-18T09:26:31.832Z,16.97
2019-03-18T09:29:02.556Z,17.83
2019-03-18T09:31:43.157Z,16.10
2019-03-18T09:34:42.409Z,16.57
2019-03-18T09:37:12.985Z,20.20
2019-03-18T09:39:43.696Z,19.23
2019-03-18T09:45:20.214Z,15.70
2019-03-18T09:48:08.828Z,16.30
2019-03-18T09:50:56.863Z,22.90
2019-03-18T09:53:29.439Z,11.73
2019-03-18T09:56:08.252Z,18.97
2019-03-18T09:58:44.799Z,15.57
2019-03-18T10:01:50.844Z,11.50
2019-03-18T10:04:21.504Z,13.43
2019-03-18T10:06:55.468Z,15.83
2019-03-18T10:09:31.344Z,13.63
2019-03-18T10:12:01.959Z,16.97
2019-03-18T10:14:41.969Z,14.97
2019-03-18T10:17:18.470Z,15.63
2019-03-18T10:19:49.096Z,14.57
2019-03-18T10:22:32.803Z,14.13
2019-03-18T10:25:04.824Z,12.53
2019-03-18T10:27:37.746Z,15.50
2019-03-18T10:30:08.112Z,12.93
2019-03-18T10:32:44.890Z,12.03
2019-03-18T10:35:15.616Z,8.77
2019-03-18T10:37:46.182Z,8.10
2019-03-18T10:40:16.785Z,7.97
2019-03-18T10:42:47.342Z,11.80
2019-03-18T10:45:18.025Z,16.77
2019-03-18T10:47:48.670Z,13.47
2019-03-18T10:50:19.408Z,12.87
2019-03-18T10:52:50.243Z,12.13
2019-03-18T10:55:27.021Z,16.77
2019-03-18T10:58:18.017Z,13.43
2019-03-18T11:00:49.918Z,19.73
2019-03-18T11:03:20.578Z,12.40
2019-03-18T11:05:53.229Z,16.83
2019-03-18T11:08:33.127Z,12.07
2019-03-18T11:11:22.082Z,16.13
2019-03-18T11:14:15.299Z,13.03
2019-03-18T11:16:45.936Z,16.97
2019-03-18T11:19:16.570Z,19.90
2019-03-18T11:21:47.356Z,20.00
2019-03-18T11:24:17.978Z,15.03
2019-03-18T11:26:55.193Z,15.20
2019-03-18T11:29:24.818Z,14.47
2019-03-18T11:31:55.427Z,11.80
2019-03-18T11:34:26.026Z,10.87
2019-03-18T11:36:56.764Z,12.63
2019-03-18T11:39:27.475Z,12.53
2019-03-18T11:41:58.126Z,18.57
2019-03-18T11:44:34.272Z,15.30
2019-03-18T11:47:11.932Z,11.13
2019-03-18T11:49:42.690Z,13.73
2019-03-18T11:52:20.366Z,14.07
2019-03-18T11:54:51.145Z,11.50
2019-03-18T11:57:22.767Z,11.63
2019-03-18T12:00:00.801Z,12.57
2019-03-18T12:02:31.496Z,8.03
2019-03-18T12:05:02.106Z,11.87
2019-03-18T12:07:46.231Z,10.13
2019-03-18T12:10:18.050Z,13.63
2019-03-18T12:12:48.749Z,11.27
2019-03-18T12:15:37.871Z,12.47
2019-03-18T12:18:08.623Z,14.30
2019-03-18T12:20:51.422Z,11.93
2019-03-18T12:23:25.118Z,8.87
2019-03-18T12:25:55.822Z,9.33
2019-03-18T12:28:39.508Z,10.57
2019-03-18T12:31:10.133Z,12.33
2019-03-18T12:33:47.398Z,12.20
2019-03-18T12:36:18.089Z,10.77
2019-03-18T12:38:48.651Z,10.43
2019-03-18T12:41:19.339Z,11.67
2019-03-18T12:43:50.009Z,8.67
2019-03-18T12:46:20.701Z,8.60
2019-03-18T12:48:51.325Z,9.07
2019-03-18T12:51:28.790Z,10.47
2019-03-18T12:54:20.678Z,6.83
2019-03-18T12:56:51.271Z,14.07
2019-03-18T12:59:21.866Z,8.07
2019-03-18T13:01:52.566Z,7.63
2019-03-18T13:04:53.921Z,8.97
2019-03-18T13:07:24.704Z,14.30
2019-03-18T13:09:55.331Z,11.83
2019-03-18T13:12:25.937Z,8.20
2019-03-18T13:14:56.440Z,9.50
2019-03-18T13:17:27.052Z,11.57
2019-03-18T13:20:08.185Z,8.07
2019-03-18T13:22:38.767Z,7.70
2019-03-18T13:25:13.288Z,8.70
2019-03-18T13:27:50.115Z,8.47
2019-03-18T13:30:21.017Z,5.33
2019-03-18T13:32:51.564Z,6.93
2019-03-18T13:35:22.243Z,10.23
2019-03-18T13:38:09.390Z,10.20
2019-03-18T13:40:48.265Z,9.37
2019-03-18T13:43:18.898Z,10.80
2019-03-18T13:45:55.226Z,16.33
2019-03-18T13:48:21.804Z,9.90
2019-03-18T13:50:53.463Z,6.97
2019-03-18T13:53:24.348Z,12.87
2019-03-18T13:55:57.361Z,11.03
2019-03-18T13:58:28.100Z,9.40
2019-03-18T14:00:58.807Z,8.40
2019-03-18T14:03:29.452Z,8.33
2019-03-18T14:06:01.383Z,10.00
2019-03-18T14:08:50.336Z,9.23
2019-03-18T14:11:26.480Z,10.27
2019-03-18T14:13:57.068Z,10.83
2019-03-18T14:16:41.595Z,9.80
2019-03-18T14:19:15.760Z,15.20
2019-03-18T14:21:46.488Z,12.83
2019-03-18T14:24:17.170Z,13.43
2019-03-18T14:26:49.802Z,10.97
2019-03-18T14:29:25.894Z,12.73
2019-03-18T14:32:06.963Z,10.47
2019-03-18T14:34:37.603Z,6.60
2019-03-18T14:37:13.785Z,7.67
2019-03-18T14:40:14.961Z,10.10
2019-03-18T14:42:50.356Z,12.83
2019-03-18T14:45:23.096Z,7.73
2019-03-18T14:47:55.804Z,10.63
2019-03-18T14:50:27.040Z,9.93
2019-03-18T14:52:57.723Z,14.57
2019-03-18T14:55:28.397Z,9.30
2019-03-18T14:58:07.095Z,11.43
2019-03-18T15:00:37.757Z,14.97
2019-03-18T15:03:10.468Z,10.10
2019-03-18T15:05:41.136Z,8.13
2019-03-18T15:08:12.794Z,8.53
2019-03-18T15:10:51.557Z,7.13
2019-03-18T15:13:32.135Z,7.83
2019-03-18T15:16:03.718Z,8.47
2019-03-18T15:18:34.364Z,10.33
2019-03-18T15:21:14.328Z,9.50
2019-03-18T15:23:49.518Z,11.83
2019-03-18T15:26:41.205Z,15.33
2019-03-18T15:29:12.000Z,10.27
2019-03-18T15:31:42.588Z,11.93
2019-03-18T15:34:13.728Z,13.20
2019-03-18T15:36:44.451Z,10.73
2019-03-18T15:39:15.187Z,10.47
2019-03-18T15:41:45.961Z,10.27
2019-03-18T15:44:21.476Z,10.70
2019-03-18T15:46:52.263Z,16.53
2019-03-18T15:49:22.850Z,12.53
2019-03-18T15:52:11.562Z,16.13
2019-03-18T15:54:53.396Z,10.10
2019-03-18T15:57:14.832Z,15.87
2019-03-18T15:59:58.124Z,11.70
2019-03-18T16:02:28.805Z,10.60
2019-03-18T16:04:59.467Z,10.80
2019-03-18T16:07:33.641Z,15.67
2019-03-18T16:10:04.767Z,9.70
2019-03-18T16:12:36.833Z,10.50
2019-03-18T16:15:08.184Z,11.90
2019-03-18T16:17:41.545Z,7.50
2019-03-18T16:20:14.640Z,7.70
2019-03-18T16:22:51.791Z,12.00
2019-03-18T16:25:30.800Z,12.73
2019-03-18T16:28:12.869Z,10.27
2019-03-18T16:30:43.643Z,9.97
2019-03-18T16:33:14.417Z,8.83
2019-03-18T16:36:12.125Z,12.43
2019-03-18T16:38:49.023Z,10.87
2019-03-18T16:41:32.955Z,10.90
2019-03-18T16:44:03.686Z,11.97
2019-03-18T16:46:34.493Z,9.50
2019-03-18T16:49:05.252Z,12.03
2019-03-18T16:51:35.852Z,11.33
2019-03-18T16:54:24.890Z,13.97
2019-03-18T16:57:02.157Z,19.43
2019-03-18T17:00:03.356Z,13.23
2019-03-18T17:02:35.313Z,6.63
2019-03-18T17:05:06.709Z,14.53
2019-03-18T17:07:37.756Z,10.17
2019-03-18T17:10:19.394Z,17.70
2019-03-18T17:12:51.165Z,9.40
2019-03-18T17:15:21.903Z,6.33
2019-03-18T17:17:52.643Z,11.03
2019-03-18T17:20:23.231Z,11.23
2019-03-18T17:22:54.092Z,6.83
2019-03-18T17:25:25.015Z,8.73
2019-03-18T17:27:57.742Z,8.77
2019-03-18T17:30:28.465Z,8.13
2019-03-18T17:33:02.348Z,12.60
2019-03-18T17:35:53.025Z,13.40
2019-03-18T17:38:28.295Z,12.77
2019-03-18T17:41:04.375Z,9.03
2019-03-18T17:43:35.112Z,10.17
2019-03-18T17:46:05.834Z,9.47
2019-03-18T17:48:43.240Z,13.73
2019-03-18T17:51:13.756Z,10.10
2019-03-18T17:53:45.380Z,10.23
2019-03-18T17:56:29.326Z,16.87
2019-03-18T17:58:50.597Z,12.30
2019-03-18T18:01:22.397Z,7.97
2019-03-18T18:03:54.593Z,11.33
2019-03-18T18:06:38.338Z,10.43
2019-03-18T18:09:09.248Z,14.80
2019-03-18T18:11:44.221Z,13.47
2019-03-18T18:14:14.883Z,13.27
2019-03-18T18:16:45.665Z,15.87
2019-03-18T18:19:16.241Z,16.23
2019-03-18T18:22:14.173Z,15.33
2019-03-18T18:24:44.968Z,12.13
2019-03-18T18:27:19.136Z,10.00
2019-03-18T18:30:01.066Z,13.00
2019-03-18T18:32:32.897Z,10.20
2019-03-18T18:35:12.843Z,10.33
2019-03-18T18:37:44.709Z,10.23
2019-03-18T18:40:27.376Z,13.77
2019-03-18T18:43:00.094Z,13.27
2019-03-18T18:45:31.184Z,9.93
2019-03-18T18:48:10.717Z,13.03
2019-03-18T18:50:41.644Z,7.27
2019-03-18T18:53:25.746Z,11.33
2019-03-18T18:55:48.545Z,11.73
2019-03-18T18:58:29.275Z,10.37
2019-03-18T19:01:00.065Z,7.50
2019-03-18T19:03:39.155Z,9.17
2019-03-18T19:06:10.104Z,9.33
2019-03-18T19:08:42.870Z,10.13
2019-03-18T19:11:15.692Z,16.53
2019-03-18T19:13:51.777Z,11.63
2019-03-18T19:16:23.703Z,10.43
2019-03-18T19:19:00.605Z,11.70
2019-03-18T19:21:31.373Z,10.43
2019-03-18T19:24:02.024Z,8.43
2019-03-18T19:26:47.358Z,11.20
2019-03-18T19:29:18.041Z,10.10
2019-03-18T19:31:58.487Z,9.63
2019-03-18T19:34:31.282Z,15.40
2019-03-18T19:37:02.021Z,12.23
2019-03-18T19:39:33.032Z,9.83
2019-03-18T19:42:07.433Z,14.00
2019-03-18T19:44:38.251Z,9.43
2019-03-18T19:47:10.782Z,13.60
2019-03-18T19:49:41.564Z,11.03
2019-03-18T19:52:13.460Z,10.33
2019-03-18T19:54:44.301Z,14.00
2019-03-18T19:57:19.136Z,13.83
2019-03-18T19:59:49.845Z,15.53
2019-03-18T20:02:26.472Z,11.23
2019-03-18T20:04:57.240Z,12.67
2019-03-18T20:07:36.817Z,18.17
2019-03-18T20:10:11.385Z,10.73
2019-03-18T20:12:44.106Z,11.33
2019-03-18T20:15:15.122Z,14.23
2019-03-18T20:17:48.033Z,11.10
2019-03-18T20:20:20.088Z,10.57
2019-03-18T20:22:51.881Z,19.00
2019-03-18T20:25:22.760Z,10.47
2019-03-18T20:27:58.783Z,12.83
2019-03-18T20:30:29.777Z,11.93
2019-03-18T20:33:00.602Z,11.03
2019-03-18T20:35:32.546Z,13.40
2019-03-18T20:38:03.537Z,14.60
2019-03-18T20:40:34.460Z,14.47
2019-03-18T20:43:05.223Z,7.53
2019-03-18T20:45:35.873Z,10.07
2019-03-18T20:48:07.607Z,16.43
2019-03-18T20:50:38.342Z,16.47
2019-03-18T20:53:18.483Z,9.93
2019-03-18T20:55:50.181Z,12.20
2019-03-18T20:58:20.885Z,16.30
2019-03-18T21:00:59.832Z,13.10
2019-03-18T21:03:33.869Z,10.10
2019-03-18T21:06:04.591Z,9.23
2019-03-18T21:08:35.638Z,14.03
2019-03-18T21:11:07.238Z,13.07
2019-03-18T21:13:44.303Z,14.23
2019-03-18T21:16:16.386Z,15.40
2019-03-18T21:18:57.403Z,7.67
2019-03-18T21:21:28.189Z,12.17
2019-03-18T21:24:22.719Z,9.90
2019-03-18T21:26:52.514Z,10.23
2019-03-18T21:29:27.679Z,17.63
2019-03-18T21:32:02.577Z,11.90
2019-03-18T21:34:33.443Z,10.67
2019-03-18T21:37:05.331Z,13.20
2019-03-18T21:39:42.089Z,12.97
2019-03-18T21:42:12.814Z,14.63
2019-03-18T21:44:55.271Z,12.60
2019-03-18T21:47:29.864Z,11.57
2019-03-18T21:50:07.634Z,14.60
2019-03-18T21:52:40.449Z,7.20
2019-03-18T21:55:12.004Z,13.30
2019-03-18T21:57:42.956Z,13.30
2019-03-18T22:00:23.757Z,12.97
2019-03-18T22:02:58.509Z,10.93
2019-03-18T22:05:29.094Z,12.67
2019-03-18T22:08:00.728Z,11.90
2019-03-18T22:10:31.497Z,9.10
2019-03-18T22:13:13.121Z,13.97
2019-03-18T22:15:53.889Z,11.37
2019-03-18T22:18:24.543Z,9.17
2019-03-18T22:21:03.523Z,9.80
2019-03-18T22:23:35.410Z,15.37
2019-03-18T22:26:07.244Z,17.13
2019-03-18T22:28:49.924Z,14.70
2019-03-18T22:31:25.813Z,8.73
2019-03-18T22:33:56.504Z,12.03
2019-03-18T22:36:34.679Z,10.83
2019-03-18T22:39:08.490Z,13.37
2019-03-18T22:42:24.975Z,15.57
2019-03-18T22:44:55.988Z,18.00
2019-03-18T22:47:27.934Z,15.27
2019-03-18T22:50:05.991Z,14.97
2019-03-18T22:53:03.405Z,14.13
2019-03-18T22:55:38.892Z,12.43
2019-03-18T22:58:09.675Z,16.57
2019-03-18T23:00:49.146Z,17.20
2019-03-18T23:03:22.893Z,16.03
2019-03-18T23:05:56.668Z,15.40
2019-03-18T23:08:34.995Z,12.57
2019-03-18T23:11:07.543Z,11.27
2019-03-18T23:13:49.735Z,12.13
2019-03-18T23:16:23.899Z,13.60
2019-03-18T23:18:55.173Z,12.47
2019-03-18T23:21:25.765Z,10.73
2019-03-18T23:23:56.708Z,15.20
2019-03-18T23:26:37.801Z,9.73
2019-03-18T23:29:15.405Z,13.83
2019-03-18T23:31:46.695Z,14.13
2019-03-18T23:34:19.377Z,14.17
2019-03-18T23:36:50.847Z,19.77
2019-03-18T23:39:23.143Z,11.23
2019-03-18T23:41:54.543Z,14.03
2019-03-18T23:44:37.501Z,14.70
2019-03-18T23:47:10.913Z,13.07
2019-03-18T23:49:41.955Z,14.23
2019-03-18T23:52:13.323Z,12.57
2019-03-18T23:54:58.294Z,12.00
2019-03-18T23:57:29.480Z,11.87
